sensor_id;sensor_type;location;lat;lon;timestamp;P1;durP1;ratioP1;P2;durP2;ratioP2
58222;SDS011;44020;50.890;15.796;2024-03-08T00:01:40;57.40;;;28.20;;
58222;SDS011;44020;50.890;15.796;2024-03-08T00:04:08;65.50;;;30.60;;
58222;SDS011;44020;50.890;15.796;2024-03-08T00:06:35;52.70;;;26.90;;
58222;SDS011;44020;50.890;15.796;2024-03-08T00:09:02;52.90;;;26.80;;
58222;SDS011;44020;50.890;15.796;2024-03-08T00:11:30;52.20;;;26.20;;
58222;SDS011;44020;50.890;15.796;2024-03-08T00:13:58;47.20;;;25.30;;
58222;SDS011;44020;50.890;15.796;2024-03-08T00:16:25;46.30;;;24.50;;
58222;SDS011;44020;50.890;15.796;2024-03-08T00:18:53;45.40;;;24.60;;
58222;SDS011;44020;50.890;15.796;2024-03-08T00:21:20;48.50;;;23.80;;
58222;SDS011;44020;50.890;15.796;2024-03-08T00:23:47;40.90;;;22.30;;
58222;SDS011;44020;50.890;15.796;2024-03-08T00:26:14;40.20;;;21.50;;
58222;SDS011;44020;50.890;15.796;2024-03-08T00:28:41;39.40;;;21.20;;
58222;SDS011;44020;50.890;15.796;2024-03-08T00:31:08;37.00;;;20.50;;
58222;SDS011;44020;50.890;15.796;2024-03-08T00:33:35;41.70;;;22.40;;
58222;SDS011;44020;50.890;15.796;2024-03-08T00:36:03;42.00;;;21.10;;
58222;SDS011;44020;50.890;15.796;2024-03-08T00:38:31;41.20;;;22.70;;
58222;SDS011;44020;50.890;15.796;2024-03-08T00:40:58;45.50;;;22.80;;
58222;SDS011;44020;50.890;15.796;2024-03-08T00:43:25;47.40;;;22.60;;
58222;SDS011;44020;50.890;15.796;2024-03-08T00:45:53;48.00;;;22.40;;
58222;SDS011;44020;50.890;15.796;2024-03-08T00:48:20;44.40;;;23.20;;
58222;SDS011;44020;50.890;15.796;2024-03-08T00:50:47;45.30;;;22.70;;
58222;SDS011;44020;50.890;15.796;2024-03-08T00:53:15;43.40;;;22.60;;
58222;SDS011;44020;50.890;15.796;2024-03-08T00:55:42;42.50;;;21.80;;
58222;SDS011;44020;50.890;15.796;2024-03-08T00:58:09;41.60;;;22.20;;
58222;SDS011;44020;50.890;15.796;2024-03-08T01:00:36;41.30;;;22.20;;
58222;SDS011;44020;50.890;15.796;2024-03-08T01:03:05;41.70;;;22.60;;
58222;SDS011;44020;50.890;15.796;2024-03-08T01:05:33;44.80;;;22.00;;
58222;SDS011;44020;50.890;15.796;2024-03-08T01:08:02;46.20;;;23.80;;
58222;SDS011;44020;50.890;15.796;2024-03-08T01:10:29;48.70;;;23.90;;
58222;SDS011;44020;50.890;15.796;2024-03-08T01:12:56;48.20;;;23.90;;
58222;SDS011;44020;50.890;15.796;2024-03-08T01:15:26;47.70;;;22.80;;
58222;SDS011;44020;50.890;15.796;2024-03-08T01:17:53;47.00;;;23.70;;
58222;SDS011;44020;50.890;15.796;2024-03-08T01:20:20;45.90;;;24.60;;
58222;SDS011;44020;50.890;15.796;2024-03-08T01:22:48;46.50;;;24.60;;
58222;SDS011;44020;50.890;15.796;2024-03-08T01:25:15;40.90;;;22.40;;
58222;SDS011;44020;50.890;15.796;2024-03-08T01:27:42;47.30;;;23.50;;
58222;SDS011;44020;50.890;15.796;2024-03-08T01:30:09;45.70;;;22.90;;
58222;SDS011;44020;50.890;15.796;2024-03-08T01:32:37;44.60;;;22.30;;
58222;SDS011;44020;50.890;15.796;2024-03-08T01:35:05;44.30;;;22.30;;
58222;SDS011;44020;50.890;15.796;2024-03-08T01:37:32;47.40;;;23.70;;
58222;SDS011;44020;50.890;15.796;2024-03-08T01:40:00;49.30;;;24.00;;
58222;SDS011;44020;50.890;15.796;2024-03-08T01:42:27;45.70;;;22.90;;
58222;SDS011;44020;50.890;15.796;2024-03-08T01:44:55;54.70;;;25.70;;
58222;SDS011;44020;50.890;15.796;2024-03-08T01:47:22;56.70;;;27.20;;
58222;SDS011;44020;50.890;15.796;2024-03-08T01:49:49;60.00;;;28.20;;
58222;SDS011;44020;50.890;15.796;2024-03-08T01:52:17;58.90;;;27.80;;
58222;SDS011;44020;50.890;15.796;2024-03-08T01:54:47;54.50;;;27.10;;
58222;SDS011;44020;50.890;15.796;2024-03-08T01:57:15;59.00;;;27.50;;
58222;SDS011;44020;50.890;15.796;2024-03-08T01:59:42;52.90;;;25.50;;
58222;SDS011;44020;50.890;15.796;2024-03-08T02:02:10;59.20;;;27.30;;
58222;SDS011;44020;50.890;15.796;2024-03-08T02:04:41;55.60;;;25.90;;
58222;SDS011;44020;50.890;15.796;2024-03-08T02:07:08;56.00;;;26.60;;
58222;SDS011;44020;50.890;15.796;2024-03-08T02:09:35;55.20;;;26.80;;
58222;SDS011;44020;50.890;15.796;2024-03-08T02:12:03;55.80;;;26.50;;
58222;SDS011;44020;50.890;15.796;2024-03-08T02:14:30;54.80;;;27.40;;
58222;SDS011;44020;50.890;15.796;2024-03-08T02:17:01;52.20;;;24.90;;
58222;SDS011;44020;50.890;15.796;2024-03-08T02:19:28;54.10;;;24.90;;
58222;SDS011;44020;50.890;15.796;2024-03-08T02:21:55;50.20;;;24.40;;
58222;SDS011;44020;50.890;15.796;2024-03-08T02:24:23;80.10;;;31.90;;
58222;SDS011;44020;50.890;15.796;2024-03-08T02:26:51;70.80;;;30.00;;
58222;SDS011;44020;50.890;15.796;2024-03-08T02:29:18;68.20;;;29.80;;
58222;SDS011;44020;50.890;15.796;2024-03-08T02:31:47;65.60;;;27.60;;
58222;SDS011;44020;50.890;15.796;2024-03-08T02:34:13;65.40;;;27.60;;
58222;SDS011;44020;50.890;15.796;2024-03-08T02:36:41;68.10;;;28.50;;
58222;SDS011;44020;50.890;15.796;2024-03-08T02:39:09;63.20;;;27.50;;
58222;SDS011;44020;50.890;15.796;2024-03-08T02:41:37;65.40;;;26.60;;
58222;SDS011;44020;50.890;15.796;2024-03-08T02:44:04;60.10;;;27.10;;
58222;SDS011;44020;50.890;15.796;2024-03-08T02:46:31;65.80;;;27.00;;
58222;SDS011;44020;50.890;15.796;2024-03-08T02:48:58;62.80;;;27.80;;
58222;SDS011;44020;50.890;15.796;2024-03-08T02:51:25;63.40;;;26.50;;
58222;SDS011;44020;50.890;15.796;2024-03-08T02:53:53;56.00;;;26.00;;
58222;SDS011;44020;50.890;15.796;2024-03-08T02:56:20;56.40;;;25.70;;
58222;SDS011;44020;50.890;15.796;2024-03-08T02:58:48;59.00;;;26.50;;
58222;SDS011;44020;50.890;15.796;2024-03-08T03:01:16;53.60;;;24.70;;
58222;SDS011;44020;50.890;15.796;2024-03-08T03:03:43;61.10;;;27.10;;
58222;SDS011;44020;50.890;15.796;2024-03-08T03:06:11;60.60;;;25.10;;
58222;SDS011;44020;50.890;15.796;2024-03-08T03:08:38;55.40;;;25.60;;
58222;SDS011;44020;50.890;15.796;2024-03-08T03:11:09;55.50;;;25.70;;
58222;SDS011;44020;50.890;15.796;2024-03-08T03:13:36;65.00;;;27.70;;
58222;SDS011;44020;50.890;15.796;2024-03-08T03:16:03;65.90;;;27.70;;
58222;SDS011;44020;50.890;15.796;2024-03-08T03:18:31;62.90;;;27.50;;
58222;SDS011;44020;50.890;15.796;2024-03-08T03:20:59;67.20;;;28.00;;
58222;SDS011;44020;50.890;15.796;2024-03-08T03:23:26;60.50;;;26.70;;
58222;SDS011;44020;50.890;15.796;2024-03-08T03:25:54;66.40;;;27.10;;
58222;SDS011;44020;50.890;15.796;2024-03-08T03:28:24;65.70;;;27.20;;
58222;SDS011;44020;50.890;15.796;2024-03-08T03:30:51;61.80;;;26.10;;
58222;SDS011;44020;50.890;15.796;2024-03-08T03:33:19;56.10;;;25.40;;
58222;SDS011;44020;50.890;15.796;2024-03-08T03:35:47;55.20;;;25.40;;
58222;SDS011;44020;50.890;15.796;2024-03-08T03:38:15;62.50;;;27.80;;
58222;SDS011;44020;50.890;15.796;2024-03-08T03:40:43;53.40;;;24.90;;
58222;SDS011;44020;50.890;15.796;2024-03-08T03:43:11;53.00;;;24.10;;
58222;SDS011;44020;50.890;15.796;2024-03-08T03:45:39;53.40;;;24.30;;
58222;SDS011;44020;50.890;15.796;2024-03-08T03:48:07;55.90;;;26.10;;
58222;SDS011;44020;50.890;15.796;2024-03-08T03:50:38;48.20;;;23.40;;
58222;SDS011;44020;50.890;15.796;2024-03-08T03:53:05;50.10;;;23.00;;
58222;SDS011;44020;50.890;15.796;2024-03-08T03:55:35;46.50;;;22.80;;
58222;SDS011;44020;50.890;15.796;2024-03-08T03:58:05;49.00;;;23.20;;
58222;SDS011;44020;50.890;15.796;2024-03-08T04:00:32;44.20;;;22.00;;
58222;SDS011;44020;50.890;15.796;2024-03-08T04:02:59;52.70;;;23.50;;
58222;SDS011;44020;50.890;15.796;2024-03-08T04:05:27;47.40;;;22.00;;
58222;SDS011;44020;50.890;15.796;2024-03-08T04:07:54;51.30;;;23.60;;
58222;SDS011;44020;50.890;15.796;2024-03-08T04:10:21;47.40;;;22.70;;
58222;SDS011;44020;50.890;15.796;2024-03-08T04:12:48;51.50;;;23.40;;
58222;SDS011;44020;50.890;15.796;2024-03-08T04:15:15;49.70;;;22.90;;
58222;SDS011;44020;50.890;15.796;2024-03-08T04:17:43;56.00;;;24.30;;
58222;SDS011;44020;50.890;15.796;2024-03-08T04:20:12;49.80;;;23.30;;
58222;SDS011;44020;50.890;15.796;2024-03-08T04:22:44;47.50;;;22.60;;
58222;SDS011;44020;50.890;15.796;2024-03-08T04:25:13;52.40;;;21.60;;
58222;SDS011;44020;50.890;15.796;2024-03-08T04:27:40;49.50;;;22.50;;
58222;SDS011;44020;50.890;15.796;2024-03-08T04:30:08;49.30;;;23.20;;
58222;SDS011;44020;50.890;15.796;2024-03-08T04:32:36;53.40;;;24.00;;
58222;SDS011;44020;50.890;15.796;2024-03-08T04:35:03;51.60;;;25.40;;
58222;SDS011;44020;50.890;15.796;2024-03-08T04:37:31;62.10;;;27.70;;
58222;SDS011;44020;50.890;15.796;2024-03-08T04:39:58;69.70;;;30.70;;
58222;SDS011;44020;50.890;15.796;2024-03-08T04:42:26;76.20;;;33.40;;
58222;SDS011;44020;50.890;15.796;2024-03-08T04:44:56;82.80;;;34.00;;
58222;SDS011;44020;50.890;15.796;2024-03-08T04:47:24;72.10;;;32.30;;
58222;SDS011;44020;50.890;15.796;2024-03-08T04:49:52;81.90;;;34.20;;
58222;SDS011;44020;50.890;15.796;2024-03-08T04:52:20;80.60;;;33.80;;
58222;SDS011;44020;50.890;15.796;2024-03-08T04:54:49;71.70;;;30.10;;
58222;SDS011;44020;50.890;15.796;2024-03-08T04:57:16;59.30;;;28.60;;
58222;SDS011;44020;50.890;15.796;2024-03-08T04:59:45;58.40;;;27.40;;
58222;SDS011;44020;50.890;15.796;2024-03-08T05:02:12;55.80;;;26.10;;
58222;SDS011;44020;50.890;15.796;2024-03-08T05:04:39;55.60;;;26.50;;
58222;SDS011;44020;50.890;15.796;2024-03-08T05:07:07;64.80;;;29.50;;
58222;SDS011;44020;50.890;15.796;2024-03-08T05:09:34;61.20;;;30.20;;
58222;SDS011;44020;50.890;15.796;2024-03-08T05:12:03;67.80;;;31.60;;
58222;SDS011;44020;50.890;15.796;2024-03-08T05:14:30;67.60;;;29.90;;
58222;SDS011;44020;50.890;15.796;2024-03-08T05:16:57;61.50;;;30.30;;
58222;SDS011;44020;50.890;15.796;2024-03-08T05:19:24;78.30;;;33.70;;
58222;SDS011;44020;50.890;15.796;2024-03-08T05:21:51;68.00;;;31.30;;
58222;SDS011;44020;50.890;15.796;2024-03-08T05:24:19;70.60;;;31.30;;
58222;SDS011;44020;50.890;15.796;2024-03-08T05:26:46;67.00;;;31.40;;
58222;SDS011;44020;50.890;15.796;2024-03-08T05:29:14;57.20;;;26.50;;
58222;SDS011;44020;50.890;15.796;2024-03-08T05:31:51;56.50;;;28.90;;
58222;SDS011;44020;50.890;15.796;2024-03-08T05:34:19;67.80;;;29.10;;
58222;SDS011;44020;50.890;15.796;2024-03-08T05:36:48;61.70;;;29.70;;
58222;SDS011;44020;50.890;15.796;2024-03-08T05:39:18;59.20;;;28.40;;
58222;SDS011;44020;50.890;15.796;2024-03-08T05:44:18;75.90;;;35.30;;
58222;SDS011;44020;50.890;15.796;2024-03-08T05:46:45;94.30;;;40.80;;
58222;SDS011;44020;50.890;15.796;2024-03-08T05:49:13;60.00;;;28.70;;
58222;SDS011;44020;50.890;15.796;2024-03-08T05:51:40;126.60;;;41.90;;
58222;SDS011;44020;50.890;15.796;2024-03-08T05:54:09;204.50;;;60.00;;
58222;SDS011;44020;50.890;15.796;2024-03-08T05:56:37;280.60;;;76.00;;
58222;SDS011;44020;50.890;15.796;2024-03-08T05:59:05;241.10;;;70.00;;
58222;SDS011;44020;50.890;15.796;2024-03-08T06:01:33;172.50;;;52.80;;
58222;SDS011;44020;50.890;15.796;2024-03-08T06:04:03;143.40;;;48.60;;
58222;SDS011;44020;50.890;15.796;2024-03-08T06:06:30;76.50;;;32.30;;
58222;SDS011;44020;50.890;15.796;2024-03-08T06:08:58;59.20;;;27.90;;
58222;SDS011;44020;50.890;15.796;2024-03-08T06:11:26;57.10;;;27.90;;
58222;SDS011;44020;50.890;15.796;2024-03-08T06:13:58;74.20;;;33.10;;
58222;SDS011;44020;50.890;15.796;2024-03-08T06:16:26;87.50;;;35.90;;
58222;SDS011;44020;50.890;15.796;2024-03-08T06:18:57;89.70;;;36.70;;
58222;SDS011;44020;50.890;15.796;2024-03-08T06:21:24;84.60;;;35.90;;
58222;SDS011;44020;50.890;15.796;2024-03-08T06:23:54;80.30;;;33.70;;
58222;SDS011;44020;50.890;15.796;2024-03-08T06:26:21;84.50;;;34.00;;
58222;SDS011;44020;50.890;15.796;2024-03-08T06:28:49;77.80;;;34.00;;
58222;SDS011;44020;50.890;15.796;2024-03-08T06:31:17;74.70;;;32.70;;
58222;SDS011;44020;50.890;15.796;2024-03-08T06:33:44;77.80;;;33.50;;
58222;SDS011;44020;50.890;15.796;2024-03-08T06:36:12;82.20;;;33.80;;
58222;SDS011;44020;50.890;15.796;2024-03-08T06:38:39;78.30;;;36.50;;
58222;SDS011;44020;50.890;15.796;2024-03-08T06:41:09;72.70;;;33.40;;
58222;SDS011;44020;50.890;15.796;2024-03-08T06:43:42;75.10;;;36.60;;
58222;SDS011;44020;50.890;15.796;2024-03-08T06:46:14;77.70;;;35.20;;
58222;SDS011;44020;50.890;15.796;2024-03-08T06:48:42;70.40;;;34.10;;
58222;SDS011;44020;50.890;15.796;2024-03-08T06:51:09;80.50;;;35.10;;
58222;SDS011;44020;50.890;15.796;2024-03-08T06:53:37;71.20;;;34.80;;
58222;SDS011;44020;50.890;15.796;2024-03-08T06:56:05;90.50;;;38.90;;
58222;SDS011;44020;50.890;15.796;2024-03-08T06:58:34;80.30;;;35.40;;
58222;SDS011;44020;50.890;15.796;2024-03-08T07:01:01;72.40;;;33.60;;
58222;SDS011;44020;50.890;15.796;2024-03-08T07:03:30;75.10;;;32.80;;
58222;SDS011;44020;50.890;15.796;2024-03-08T07:05:59;73.80;;;32.70;;
58222;SDS011;44020;50.890;15.796;2024-03-08T07:08:29;65.90;;;31.80;;
58222;SDS011;44020;50.890;15.796;2024-03-08T07:10:56;69.70;;;33.20;;
58222;SDS011;44020;50.890;15.796;2024-03-08T07:13:24;66.10;;;29.60;;
58222;SDS011;44020;50.890;15.796;2024-03-08T07:15:52;67.60;;;30.30;;
58222;SDS011;44020;50.890;15.796;2024-03-08T07:18:19;70.40;;;32.40;;
58222;SDS011;44020;50.890;15.796;2024-03-08T07:20:48;68.40;;;32.30;;
58222;SDS011;44020;50.890;15.796;2024-03-08T07:23:18;69.10;;;32.80;;
58222;SDS011;44020;50.890;15.796;2024-03-08T07:26:04;68.90;;;31.00;;
58222;SDS011;44020;50.890;15.796;2024-03-08T07:28:31;63.80;;;31.40;;
58222;SDS011;44020;50.890;15.796;2024-03-08T07:30:58;63.30;;;30.30;;
58222;SDS011;44020;50.890;15.796;2024-03-08T07:33:44;54.50;;;26.40;;
58222;SDS011;44020;50.890;15.796;2024-03-08T07:36:12;58.10;;;27.60;;
58222;SDS011;44020;50.890;15.796;2024-03-08T07:38:39;54.50;;;26.10;;
58222;SDS011;44020;50.890;15.796;2024-03-08T07:41:07;55.40;;;27.40;;
58222;SDS011;44020;50.890;15.796;2024-03-08T07:43:34;50.10;;;24.10;;
58222;SDS011;44020;50.890;15.796;2024-03-08T07:46:01;51.60;;;24.70;;
58222;SDS011;44020;50.890;15.796;2024-03-08T07:48:27;53.10;;;24.90;;
58222;SDS011;44020;50.890;15.796;2024-03-08T07:50:54;50.30;;;23.70;;
58222;SDS011;44020;50.890;15.796;2024-03-08T07:53:21;52.60;;;25.10;;
58222;SDS011;44020;50.890;15.796;2024-03-08T07:55:51;47.10;;;22.40;;
58222;SDS011;44020;50.890;15.796;2024-03-08T07:58:18;49.70;;;23.50;;
58222;SDS011;44020;50.890;15.796;2024-03-08T08:00:45;43.70;;;21.30;;
58222;SDS011;44020;50.890;15.796;2024-03-08T08:03:12;40.70;;;21.90;;
58222;SDS011;44020;50.890;15.796;2024-03-08T08:05:39;40.80;;;20.20;;
58222;SDS011;44020;50.890;15.796;2024-03-08T08:08:10;41.30;;;21.20;;
58222;SDS011;44020;50.890;15.796;2024-03-08T08:10:37;38.60;;;19.00;;
58222;SDS011;44020;50.890;15.796;2024-03-08T08:13:04;41.50;;;20.10;;
58222;SDS011;44020;50.890;15.796;2024-03-08T08:15:31;38.20;;;17.40;;
58222;SDS011;44020;50.890;15.796;2024-03-08T08:18:00;30.90;;;16.40;;
58222;SDS011;44020;50.890;15.796;2024-03-08T08:20:29;36.90;;;18.70;;
58222;SDS011;44020;50.890;15.796;2024-03-08T08:22:55;36.70;;;18.70;;
58222;SDS011;44020;50.890;15.796;2024-03-08T08:25:23;38.80;;;18.20;;
58222;SDS011;44020;50.890;15.796;2024-03-08T08:27:51;40.80;;;20.50;;
58222;SDS011;44020;50.890;15.796;2024-03-08T08:30:19;39.60;;;18.50;;
58222;SDS011;44020;50.890;15.796;2024-03-08T08:32:47;34.60;;;18.70;;
58222;SDS011;44020;50.890;15.796;2024-03-08T08:35:15;42.70;;;20.20;;
58222;SDS011;44020;50.890;15.796;2024-03-08T08:37:42;33.10;;;16.90;;
58222;SDS011;44020;50.890;15.796;2024-03-08T08:40:10;34.40;;;18.40;;
58222;SDS011;44020;50.890;15.796;2024-03-08T08:42:41;35.70;;;17.80;;
58222;SDS011;44020;50.890;15.796;2024-03-08T08:45:08;36.00;;;17.00;;
58222;SDS011;44020;50.890;15.796;2024-03-08T08:47:36;32.50;;;16.80;;
58222;SDS011;44020;50.890;15.796;2024-03-08T08:50:04;32.70;;;16.50;;
58222;SDS011;44020;50.890;15.796;2024-03-08T08:52:32;34.80;;;17.50;;
58222;SDS011;44020;50.890;15.796;2024-03-08T08:54:59;31.40;;;16.60;;
58222;SDS011;44020;50.890;15.796;2024-03-08T08:57:27;35.50;;;17.30;;
58222;SDS011;44020;50.890;15.796;2024-03-08T08:59:54;32.50;;;16.90;;
58222;SDS011;44020;50.890;15.796;2024-03-08T09:02:22;32.20;;;16.90;;
58222;SDS011;44020;50.890;15.796;2024-03-08T09:04:49;29.20;;;16.20;;
58222;SDS011;44020;50.890;15.796;2024-03-08T09:07:17;31.40;;;16.50;;
58222;SDS011;44020;50.890;15.796;2024-03-08T09:09:45;30.80;;;17.10;;
58222;SDS011;44020;50.890;15.796;2024-03-08T09:12:12;27.10;;;15.60;;
58222;SDS011;44020;50.890;15.796;2024-03-08T09:14:40;32.20;;;16.20;;
58222;SDS011;44020;50.890;15.796;2024-03-08T09:17:08;30.40;;;16.40;;
58222;SDS011;44020;50.890;15.796;2024-03-08T09:19:35;32.10;;;17.20;;
58222;SDS011;44020;50.890;15.796;2024-03-08T09:22:06;34.00;;;17.70;;
58222;SDS011;44020;50.890;15.796;2024-03-08T09:24:33;34.60;;;17.40;;
58222;SDS011;44020;50.890;15.796;2024-03-08T09:27:00;33.80;;;17.50;;
58222;SDS011;44020;50.890;15.796;2024-03-08T09:29:27;33.80;;;17.50;;
58222;SDS011;44020;50.890;15.796;2024-03-08T09:31:54;36.70;;;18.50;;
58222;SDS011;44020;50.890;15.796;2024-03-08T09:34:22;30.60;;;17.10;;
58222;SDS011;44020;50.890;15.796;2024-03-08T09:36:50;28.70;;;16.10;;
58222;SDS011;44020;50.890;15.796;2024-03-08T09:39:18;31.50;;;17.20;;
58222;SDS011;44020;50.890;15.796;2024-03-08T09:41:47;35.10;;;17.40;;
58222;SDS011;44020;50.890;15.796;2024-03-08T09:44:17;33.20;;;17.90;;
58222;SDS011;44020;50.890;15.796;2024-03-08T09:46:46;27.90;;;15.60;;
58222;SDS011;44020;50.890;15.796;2024-03-08T09:49:17;29.30;;;16.80;;
58222;SDS011;44020;50.890;15.796;2024-03-08T09:51:45;34.70;;;17.90;;
58222;SDS011;44020;50.890;15.796;2024-03-08T09:54:12;30.90;;;17.00;;
58222;SDS011;44020;50.890;15.796;2024-03-08T09:56:39;32.20;;;17.10;;
58222;SDS011;44020;50.890;15.796;2024-03-08T09:59:10;31.00;;;16.30;;
58222;SDS011;44020;50.890;15.796;2024-03-08T10:02:07;34.40;;;17.60;;
58222;SDS011;44020;50.890;15.796;2024-03-08T10:04:41;31.20;;;17.30;;
58222;SDS011;44020;50.890;15.796;2024-03-08T10:07:14;35.00;;;18.10;;
58222;SDS011;44020;50.890;15.796;2024-03-08T10:09:42;33.20;;;17.40;;
58222;SDS011;44020;50.890;15.796;2024-03-08T10:12:13;37.10;;;19.20;;
58222;SDS011;44020;50.890;15.796;2024-03-08T10:14:42;33.30;;;18.00;;
58222;SDS011;44020;50.890;15.796;2024-03-08T10:17:10;36.60;;;19.70;;
58222;SDS011;44020;50.890;15.796;2024-03-08T10:19:36;31.80;;;18.30;;
58222;SDS011;44020;50.890;15.796;2024-03-08T10:22:04;32.20;;;17.50;;
58222;SDS011;44020;50.890;15.796;2024-03-08T10:24:31;34.90;;;19.20;;
58222;SDS011;44020;50.890;15.796;2024-03-08T10:27:00;35.20;;;18.70;;
58222;SDS011;44020;50.890;15.796;2024-03-08T10:29:31;38.40;;;20.50;;
58222;SDS011;44020;50.890;15.796;2024-03-08T10:31:59;37.90;;;20.60;;
58222;SDS011;44020;50.890;15.796;2024-03-08T10:34:26;35.90;;;20.30;;
58222;SDS011;44020;50.890;15.796;2024-03-08T10:36:53;38.70;;;20.90;;
58222;SDS011;44020;50.890;15.796;2024-03-08T10:39:27;40.20;;;22.10;;
58222;SDS011;44020;50.890;15.796;2024-03-08T10:42:02;39.60;;;22.00;;
58222;SDS011;44020;50.890;15.796;2024-03-08T10:47:01;39.70;;;20.50;;
58222;SDS011;44020;50.890;15.796;2024-03-08T10:54:45;33.40;;;18.60;;
58222;SDS011;44020;50.890;15.796;2024-03-08T10:57:17;38.80;;;20.50;;
58222;SDS011;44020;50.890;15.796;2024-03-08T10:59:47;40.60;;;22.20;;
58222;SDS011;44020;50.890;15.796;2024-03-08T11:02:16;34.90;;;19.90;;
58222;SDS011;44020;50.890;15.796;2024-03-08T11:04:50;37.80;;;20.50;;
58222;SDS011;44020;50.890;15.796;2024-03-08T11:07:17;37.40;;;21.80;;
58222;SDS011;44020;50.890;15.796;2024-03-08T11:09:49;36.70;;;21.00;;
58222;SDS011;44020;50.890;15.796;2024-03-08T11:12:26;37.60;;;21.80;;
58222;SDS011;44020;50.890;15.796;2024-03-08T11:15:09;39.00;;;21.40;;
58222;SDS011;44020;50.890;15.796;2024-03-08T11:20:12;35.70;;;20.70;;
58222;SDS011;44020;50.890;15.796;2024-03-08T11:22:47;37.20;;;20.80;;
58222;SDS011;44020;50.890;15.796;2024-03-08T11:25:32;39.70;;;22.70;;
58222;SDS011;44020;50.890;15.796;2024-03-08T11:28:06;36.20;;;21.70;;
58222;SDS011;44020;50.890;15.796;2024-03-08T11:30:44;40.10;;;22.20;;
58222;SDS011;44020;50.890;15.796;2024-03-08T11:33:27;36.40;;;20.50;;
58222;SDS011;44020;50.890;15.796;2024-03-08T11:36:29;38.20;;;22.20;;
58222;SDS011;44020;50.890;15.796;2024-03-08T11:38:53;36.00;;;20.60;;
58222;SDS011;44020;50.890;15.796;2024-03-08T11:41:22;37.50;;;21.80;;
58222;SDS011;44020;50.890;15.796;2024-03-08T11:44:01;40.80;;;22.50;;
58222;SDS011;44020;50.890;15.796;2024-03-08T11:46:33;37.50;;;20.90;;
58222;SDS011;44020;50.890;15.796;2024-03-08T11:49:00;35.60;;;21.40;;
58222;SDS011;44020;50.890;15.796;2024-03-08T11:51:28;36.30;;;21.30;;
58222;SDS011;44020;50.890;15.796;2024-03-08T11:53:56;35.40;;;20.70;;
58222;SDS011;44020;50.890;15.796;2024-03-08T11:56:23;38.80;;;21.80;;
58222;SDS011;44020;50.890;15.796;2024-03-08T11:58:54;35.80;;;20.70;;
58222;SDS011;44020;50.890;15.796;2024-03-08T12:01:25;36.30;;;21.30;;
58222;SDS011;44020;50.890;15.796;2024-03-08T12:03:53;35.60;;;20.80;;
58222;SDS011;44020;50.890;15.796;2024-03-08T12:06:21;36.50;;;20.60;;
58222;SDS011;44020;50.890;15.796;2024-03-08T12:08:48;31.40;;;20.10;;
58222;SDS011;44020;50.890;15.796;2024-03-08T12:11:17;36.20;;;20.20;;
58222;SDS011;44020;50.890;15.796;2024-03-08T12:13:49;32.90;;;20.50;;
58222;SDS011;44020;50.890;15.796;2024-03-08T12:16:20;32.20;;;19.90;;
58222;SDS011;44020;50.890;15.796;2024-03-08T12:18:51;35.80;;;20.80;;
58222;SDS011;44020;50.890;15.796;2024-03-08T12:21:20;34.70;;;20.80;;
58222;SDS011;44020;50.890;15.796;2024-03-08T12:23:51;32.30;;;19.80;;
58222;SDS011;44020;50.890;15.796;2024-03-08T12:26:39;35.10;;;19.70;;
58222;SDS011;44020;50.890;15.796;2024-03-08T12:31:55;36.90;;;21.80;;
58222;SDS011;44020;50.890;15.796;2024-03-08T12:34:25;36.70;;;20.30;;
58222;SDS011;44020;50.890;15.796;2024-03-08T12:36:53;33.00;;;21.00;;
58222;SDS011;44020;50.890;15.796;2024-03-08T12:39:21;36.60;;;21.30;;
58222;SDS011;44020;50.890;15.796;2024-03-08T12:41:49;37.30;;;21.60;;
58222;SDS011;44020;50.890;15.796;2024-03-08T12:44:18;35.90;;;22.10;;
58222;SDS011;44020;50.890;15.796;2024-03-08T12:46:48;34.70;;;21.40;;
58222;SDS011;44020;50.890;15.796;2024-03-08T12:49:15;36.30;;;22.30;;
58222;SDS011;44020;50.890;15.796;2024-03-08T12:51:48;32.90;;;21.00;;
58222;SDS011;44020;50.890;15.796;2024-03-08T12:54:15;35.30;;;20.60;;
58222;SDS011;44020;50.890;15.796;2024-03-08T12:56:42;37.70;;;22.50;;
58222;SDS011;44020;50.890;15.796;2024-03-08T12:59:09;35.50;;;21.60;;
58222;SDS011;44020;50.890;15.796;2024-03-08T13:01:39;35.90;;;22.30;;
58222;SDS011;44020;50.890;15.796;2024-03-08T13:04:06;35.70;;;22.30;;
58222;SDS011;44020;50.890;15.796;2024-03-08T13:06:37;35.00;;;23.00;;
58222;SDS011;44020;50.890;15.796;2024-03-08T13:09:04;35.80;;;22.60;;
58222;SDS011;44020;50.890;15.796;2024-03-08T13:11:32;38.20;;;24.30;;
58222;SDS011;44020;50.890;15.796;2024-03-08T13:14:03;40.70;;;26.40;;
58222;SDS011;44020;50.890;15.796;2024-03-08T13:16:33;41.60;;;26.40;;
58222;SDS011;44020;50.890;15.796;2024-03-08T13:19:01;41.60;;;26.50;;
58222;SDS011;44020;50.890;15.796;2024-03-08T13:21:29;40.30;;;25.70;;
58222;SDS011;44020;50.890;15.796;2024-03-08T13:23:57;41.80;;;26.90;;
58222;SDS011;44020;50.890;15.796;2024-03-08T13:26:25;36.90;;;24.60;;
58222;SDS011;44020;50.890;15.796;2024-03-08T13:28:58;35.90;;;22.70;;
58222;SDS011;44020;50.890;15.796;2024-03-08T13:31:25;37.70;;;23.80;;
58222;SDS011;44020;50.890;15.796;2024-03-08T13:33:52;36.60;;;24.00;;
58222;SDS011;44020;50.890;15.796;2024-03-08T13:36:24;35.20;;;23.00;;
58222;SDS011;44020;50.890;15.796;2024-03-08T13:38:55;36.90;;;24.10;;
58222;SDS011;44020;50.890;15.796;2024-03-08T13:41:25;36.30;;;23.90;;
58222;SDS011;44020;50.890;15.796;2024-03-08T13:43:52;34.00;;;24.10;;
58222;SDS011;44020;50.890;15.796;2024-03-08T13:46:19;34.70;;;24.40;;
58222;SDS011;44020;50.890;15.796;2024-03-08T13:48:46;33.30;;;24.80;;
58222;SDS011;44020;50.890;15.796;2024-03-08T13:51:14;31.20;;;23.00;;
58222;SDS011;44020;50.890;15.796;2024-03-08T13:53:43;30.30;;;23.70;;
58222;SDS011;44020;50.890;15.796;2024-03-08T13:56:10;31.20;;;23.20;;
58222;SDS011;44020;50.890;15.796;2024-03-08T13:58:37;27.80;;;22.80;;
58222;SDS011;44020;50.890;15.796;2024-03-08T14:01:07;30.00;;;23.30;;
58222;SDS011;44020;50.890;15.796;2024-03-08T14:03:38;28.10;;;22.80;;
58222;SDS011;44020;50.890;15.796;2024-03-08T14:06:08;28.00;;;20.90;;
58222;SDS011;44020;50.890;15.796;2024-03-08T14:08:36;28.00;;;22.90;;
58222;SDS011;44020;50.890;15.796;2024-03-08T14:11:06;26.30;;;21.50;;
58222;SDS011;44020;50.890;15.796;2024-03-08T14:13:42;26.90;;;21.70;;
58222;SDS011;44020;50.890;15.796;2024-03-08T14:16:13;26.20;;;21.90;;
58222;SDS011;44020;50.890;15.796;2024-03-08T14:18:40;29.90;;;23.10;;
58222;SDS011;44020;50.890;15.796;2024-03-08T14:21:08;29.70;;;22.40;;
58222;SDS011;44020;50.890;15.796;2024-03-08T14:23:35;28.30;;;22.00;;
58222;SDS011;44020;50.890;15.796;2024-03-08T14:26:05;28.40;;;23.00;;
58222;SDS011;44020;50.890;15.796;2024-03-08T14:28:33;27.00;;;22.40;;
58222;SDS011;44020;50.890;15.796;2024-03-08T14:31:01;29.60;;;24.20;;
58222;SDS011;44020;50.890;15.796;2024-03-08T14:33:29;28.10;;;22.20;;